createdAt,value
2023-02-06T00:02:56.629Z,19.80
2023-02-06T00:07:56.582Z,19.40
2023-02-06T00:12:56.480Z,18.30
2023-02-06T00:17:56.430Z,17.50
2023-02-06T00:22:56.349Z,19.50
2023-02-06T00:27:56.262Z,20.00
2023-02-06T00:32:56.249Z,19.80
2023-02-06T00:37:56.199Z,20.80
2023-02-06T00:42:56.084Z,19.90
2023-02-06T00:47:56.038Z,20.40
2023-02-06T00:52:56.006Z,20.10
2023-02-06T00:57:56.016Z,18.30
2023-02-06T01:02:55.860Z,19.80
2023-02-06T01:07:55.768Z,19.00
2023-02-06T01:12:55.724Z,21.10
2023-02-06T01:17:55.710Z,19.00
2023-02-06T01:22:55.583Z,16.60
2023-02-06T01:27:55.580Z,18.20
2023-02-06T01:32:55.425Z,17.30
2023-02-06T01:37:55.363Z,16.70
2023-02-06T01:42:55.405Z,14.80
2023-02-06T01:47:55.282Z,14.90
2023-02-06T01:52:55.204Z,14.70
2023-02-06T01:57:55.122Z,14.30
2023-02-06T02:02:55.061Z,15.50
2023-02-06T02:07:55.039Z,14.90
2023-02-06T02:12:54.932Z,15.60
2023-02-06T02:17:54.894Z,16.30
2023-02-06T02:22:54.808Z,16.70
2023-02-06T02:27:54.790Z,15.30
2023-02-06T02:32:54.709Z,17.30
2023-02-06T02:37:54.652Z,17.00
2023-02-06T02:42:54.616Z,15.10
2023-02-06T02:47:54.487Z,14.90
2023-02-06T02:52:54.485Z,14.90
2023-02-06T02:57:54.370Z,14.50
2023-02-06T03:02:54.322Z,17.20
2023-02-06T03:07:54.595Z,16.20
2023-02-06T03:12:54.296Z,15.00
2023-02-06T03:17:54.252Z,13.60
2023-02-06T03:22:54.051Z,16.00
2023-02-06T03:27:54.399Z,16.10
2023-02-06T03:32:53.907Z,15.50
2023-02-06T03:37:53.845Z,15.00
2023-02-06T03:42:53.815Z,14.50
2023-02-06T03:47:53.701Z,18.50
2023-02-06T03:52:53.699Z,18.30
2023-02-06T03:57:53.574Z,18.60
2023-02-06T04:02:53.574Z,19.10
2023-02-06T04:07:53.554Z,17.00
2023-02-06T04:12:53.397Z,17.00
2023-02-06T04:18:00.580Z,19.80
2023-02-06T04:22:54.277Z,18.20
2023-02-06T04:27:53.322Z,19.30
2023-02-06T04:32:53.142Z,17.30
2023-02-06T04:37:53.090Z,18.50
2023-02-06T04:42:53.012Z,19.20
2023-02-06T04:47:53.007Z,16.90
2023-02-06T04:52:52.878Z,17.50
2023-02-06T04:57:52.890Z,20.80
2023-02-06T05:02:52.795Z,19.70
2023-02-06T05:07:52.747Z,20.50
2023-02-06T05:12:52.624Z,19.90
2023-02-06T05:17:52.557Z,21.00
2023-02-06T05:22:52.551Z,19.60
2023-02-06T05:27:52.515Z,20.70
2023-02-06T05:32:52.470Z,17.90
2023-02-06T05:37:52.315Z,20.00
2023-02-06T05:42:52.235Z,18.80
2023-02-06T05:47:52.170Z,17.90
2023-02-06T05:52:52.194Z,18.40
2023-02-06T05:57:52.063Z,19.20
2023-02-06T06:02:52.047Z,18.10
2023-02-06T06:07:51.965Z,20.30
2023-02-06T06:12:51.876Z,19.20
2023-02-06T06:17:51.814Z,20.90
2023-02-06T06:22:51.739Z,20.70
2023-02-06T06:27:51.735Z,20.30
2023-02-06T06:32:51.620Z,18.80
2023-02-06T06:37:51.556Z,18.90
2023-02-06T06:42:51.552Z,21.30
2023-02-06T06:47:51.481Z,20.90
2023-02-06T06:52:51.352Z,21.40
2023-02-06T06:57:51.304Z,22.00
2023-02-06T07:02:51.309Z,28.60
2023-02-06T07:07:51.147Z,22.90
2023-02-06T07:12:51.126Z,21.90
2023-02-06T07:17:51.006Z,22.30
2023-02-06T07:22:51.006Z,20.70
2023-02-06T07:27:50.931Z,21.10
2023-02-06T07:32:50.920Z,23.80
2023-02-06T07:37:50.822Z,20.30
2023-02-06T07:42:50.773Z,20.40
2023-02-06T07:47:50.696Z,21.50
2023-02-06T07:52:50.625Z,21.60
2023-02-06T07:57:50.568Z,21.30
2023-02-06T08:02:50.486Z,21.90
2023-02-06T08:07:50.432Z,20.90
2023-02-06T08:12:50.357Z,21.60
2023-02-06T08:17:50.326Z,22.80
2023-02-06T08:22:50.197Z,23.90
2023-02-06T08:27:50.217Z,22.50
2023-02-06T08:32:50.064Z,21.70
2023-02-06T08:37:50.067Z,22.00
2023-02-06T08:42:49.963Z,23.30
2023-02-06T08:47:49.891Z,22.80
2023-02-06T08:52:49.924Z,20.60
2023-02-06T08:57:49.786Z,21.20
2023-02-06T09:02:49.788Z,21.00
2023-02-06T09:07:49.596Z,21.40
2023-02-06T09:12:49.610Z,22.70
2023-02-06T09:17:49.481Z,22.60
2023-02-06T09:22:49.459Z,22.80
2023-02-06T09:27:49.461Z,20.90
2023-02-06T09:32:49.366Z,22.50
2023-02-06T09:37:49.222Z,23.10
2023-02-06T09:42:49.140Z,23.00
2023-02-06T09:47:49.088Z,24.00
2023-02-06T09:52:49.030Z,23.90
2023-02-06T09:57:48.941Z,21.90
2023-02-06T10:02:48.904Z,22.10
2023-02-06T10:07:48.825Z,22.20
2023-02-06T10:12:48.762Z,24.70
2023-02-06T10:17:48.734Z,23.80
2023-02-06T10:22:48.649Z,23.00
2023-02-06T10:27:48.616Z,21.70
2023-02-06T10:32:48.534Z,22.90
2023-02-06T10:37:48.464Z,21.90
2023-02-06T10:42:48.380Z,23.50
2023-02-06T10:47:48.372Z,23.40
2023-02-06T10:52:48.251Z,24.40
2023-02-06T10:57:48.186Z,24.40
2023-02-06T11:02:52.810Z,23.20
2023-02-06T11:07:49.061Z,27.90
2023-02-06T11:12:48.008Z,27.90
2023-02-06T11:17:47.978Z,26.90
2023-02-06T11:22:53.185Z,27.90
2023-02-06T11:27:48.838Z,30.90
2023-02-06T11:33:02.702Z,35.20
2023-02-06T11:37:48.655Z,32.60
2023-02-06T11:42:47.640Z,28.00
2023-02-06T11:47:47.536Z,31.10
2023-02-06T11:52:47.493Z,32.70
2023-02-06T11:57:47.401Z,29.70
2023-02-06T12:02:47.334Z,31.70
2023-02-06T12:07:47.327Z,32.80
2023-02-06T12:12:47.214Z,32.70
2023-02-06T12:17:47.181Z,28.20
2023-02-06T12:22:47.097Z,30.40
2023-02-06T12:27:47.021Z,31.50
2023-02-06T12:32:46.944Z,30.00
2023-02-06T12:37:46.955Z,31.40
2023-02-06T12:42:46.803Z,31.50
2023-02-06T12:47:46.733Z,37.60
2023-02-06T12:52:46.690Z,25.00
2023-02-06T12:57:46.713Z,24.50
2023-02-06T13:02:46.579Z,25.70
2023-02-06T13:07:49.651Z,31.20
2023-02-06T13:12:46.440Z,27.50
2023-02-06T13:17:46.345Z,28.80
2023-02-06T13:22:46.288Z,29.80
2023-02-06T13:27:46.280Z,29.80
2023-02-06T13:32:46.178Z,30.10
2023-02-06T13:37:48.036Z,28.70
2023-02-06T13:42:46.150Z,28.80
2023-02-06T13:47:46.397Z,27.80
2023-02-06T13:52:45.920Z,29.50
2023-02-06T13:57:45.806Z,24.80
2023-02-06T14:02:45.811Z,26.60
2023-02-06T14:07:45.835Z,21.00
2023-02-06T14:12:45.630Z,21.60
2023-02-06T14:17:45.894Z,18.30
2023-02-06T14:22:45.569Z,12.30
2023-02-06T14:27:48.047Z,13.00
2023-02-06T14:32:46.382Z,13.00
2023-02-06T14:37:45.303Z,12.30
2023-02-06T14:42:45.252Z,12.70
2023-02-06T14:47:45.148Z,10.40
2023-02-06T14:52:45.210Z,12.50
2023-02-06T14:57:45.046Z,10.10
2023-02-06T15:02:45.014Z,14.10
2023-02-06T15:07:44.997Z,12.10
2023-02-06T15:12:44.847Z,9.20
2023-02-06T15:17:44.858Z,8.80
2023-02-06T15:22:44.747Z,8.80
2023-02-06T15:27:44.680Z,10.60
2023-02-06T15:32:44.624Z,11.20
2023-02-06T15:37:44.904Z,10.80
2023-02-06T15:42:44.767Z,11.20
2023-02-06T15:47:44.469Z,12.20
2023-02-06T15:52:44.317Z,12.70
2023-02-06T15:57:44.312Z,15.50
2023-02-06T16:02:44.244Z,14.30
2023-02-06T16:07:44.128Z,15.00
2023-02-06T16:12:44.347Z,11.70
2023-02-06T16:17:44.115Z,15.90
2023-02-06T16:22:43.969Z,14.10
2023-02-06T16:27:44.061Z,13.20
2023-02-06T16:32:43.897Z,15.40
2023-02-06T16:37:43.786Z,14.30
2023-02-06T16:42:43.770Z,16.60
2023-02-06T16:47:43.761Z,16.40
2023-02-06T16:52:43.695Z,18.10
2023-02-06T16:57:43.498Z,16.70
2023-02-06T17:02:44.407Z,18.70
2023-02-06T17:07:43.367Z,20.30
2023-02-06T17:12:43.536Z,20.10
2023-02-06T17:17:43.358Z,20.80
2023-02-06T17:22:43.245Z,17.90
2023-02-06T17:27:43.223Z,16.80
2023-02-06T17:32:43.120Z,21.30
2023-02-06T17:37:42.973Z,16.60
2023-02-06T17:42:43.068Z,19.40
2023-02-06T17:47:43.341Z,18.80
2023-02-06T17:52:42.852Z,22.20
2023-02-06T17:57:42.777Z,19.80
2023-02-06T18:02:42.787Z,20.50
2023-02-06T18:07:42.639Z,19.00
2023-02-06T18:12:42.568Z,21.20
2023-02-06T18:17:42.747Z,21.70
2023-02-06T18:22:42.766Z,20.20
2023-02-06T18:27:42.976Z,22.00
2023-02-06T18:32:42.424Z,28.10
2023-02-06T18:37:42.253Z,28.80
2023-02-06T18:42:42.668Z,30.60
2023-02-06T18:47:42.426Z,27.80
2023-02-06T18:52:42.223Z,29.30
2023-02-06T18:57:42.119Z,27.90
2023-02-06T19:02:41.870Z,25.50
2023-02-06T19:07:41.810Z,26.80
2023-02-06T19:12:41.839Z,27.40
2023-02-06T19:17:41.761Z,25.30
2023-02-06T19:22:41.641Z,28.50
2023-02-06T19:27:41.591Z,26.70
2023-02-06T19:32:41.659Z,28.00
2023-02-06T19:37:41.500Z,28.80
2023-02-06T19:42:41.502Z,32.20
2023-02-06T19:47:41.364Z,31.80
2023-02-06T19:52:44.732Z,37.50
2023-02-06T19:57:41.196Z,35.30
2023-02-06T20:02:41.128Z,31.50
2023-02-06T20:07:41.127Z,32.50
2023-02-06T20:12:41.079Z,32.90
2023-02-06T20:17:41.501Z,34.60
2023-02-06T20:22:40.953Z,35.20
2023-02-06T20:27:40.835Z,35.20
2023-02-06T20:32:40.965Z,34.30
2023-02-06T20:37:40.830Z,35.90
2023-02-06T20:42:40.600Z,34.70
2023-02-06T20:47:40.553Z,34.10
2023-02-06T20:52:41.350Z,38.50
2023-02-06T20:57:40.581Z,35.20
2023-02-06T21:02:40.486Z,34.90
2023-02-06T21:07:40.303Z,40.20
2023-02-06T21:12:40.437Z,36.00
2023-02-06T21:17:40.240Z,41.00
2023-02-06T21:22:40.220Z,36.10
2023-02-06T21:27:40.066Z,40.10
2023-02-06T21:32:40.002Z,37.50
2023-02-06T21:37:39.927Z,32.80
2023-02-06T21:42:39.899Z,32.70
2023-02-06T21:47:39.845Z,32.00
2023-02-06T21:52:39.801Z,39.70
2023-02-06T21:57:39.678Z,45.40
2023-02-06T22:02:39.718Z,42.90
2023-02-06T22:07:39.570Z,39.60
2023-02-06T22:12:40.468Z,42.90
2023-02-06T22:17:39.615Z,46.80
2023-02-06T22:22:39.354Z,50.20
2023-02-06T22:27:39.343Z,46.00
2023-02-06T22:32:40.895Z,48.60
2023-02-06T22:37:39.139Z,46.30
2023-02-06T22:42:39.113Z,43.80
2023-02-06T22:47:39.029Z,46.50
2023-02-06T22:52:39.185Z,44.60
2023-02-06T22:57:38.909Z,46.60
2023-02-06T23:02:38.932Z,48.40
2023-02-06T23:07:39.009Z,46.10
2023-02-06T23:12:38.768Z,45.40
2023-02-06T23:17:38.663Z,47.70
2023-02-06T23:22:38.674Z,44.30
2023-02-06T23:27:38.527Z,45.70
2023-02-06T23:32:38.664Z,47.80
2023-02-06T23:37:38.402Z,43.30
2023-02-06T23:42:38.289Z,43.00
2023-02-06T23:47:38.373Z,41.10
2023-02-06T23:52:38.354Z,44.50
2023-02-06T23:57:38.127Z,35.10
